Skip Navigation Links Skip Navigation Links

Current Weather

Lynchburg Regional/Preston Glenn Fld, Lynchburg, Va.

For information only: do not use for flight planning or navigation.
Latest weather
Observation time Wednesday, February 20, 2019 12:47 PM EST
Local time Wednesday, February 20, 2019 12:58 PM EST
Flight conditions Instrument Meteorological Conditions
Winds
Wind direction North-Northeast (30°)
Wind speed 9 mph
Visibility 1.75 mi.
Present weather light freezing rain, mist
Sky condition
Ceiling 600 ft. broken clouds
Cloud layer broken clouds 600 ft.
Cloud layer overcast 1,500 ft.
Temperature 32°F
Dewpoint 30°F
Altimeter 30.34 in.Hg
Derived measurements
Relative humidity 93%
Wind chill 24°F
Density altitude -1291 ft.
Remarks
Special weather observation.
METAR SPUS81 KWBC 201751 SPECI KLYH 201747Z 03008KT 1 3/4SM R04/6000VP6000FT -FZRA BR BKN006 OVC015 00/M01 A3034

Settings

Location code

InnerDrive.Weather 4.0.6770.0 Release CLR 4.0.30319.42000
Copyright ©2018 Inner Drive Technology. All rights reserved. Portions Copyright ©1986-2018 David Braverman.

Find weather

Site navigation


Skip Navigation Links

Place info

Page info

PayPal - The safer, easier way to pay online!

Return home.

Copyright ©2019 Inner Drive Technology. Purveyors of fine, hand-crafted computer software. Page printed 2019-02-20T17:58:09 UTC.